sensor_id;sensor_type;location;lat;lon;timestamp;P1;durP1;ratioP1;P2;durP2;ratioP2
65289;SDS011;51893;59.754;10.110;2022-12-17T00:00:52;13.10;;;5.50;;
65289;SDS011;51893;59.754;10.110;2022-12-17T00:03:39;12.30;;;6.20;;
65289;SDS011;51893;59.754;10.110;2022-12-17T00:06:27;13.50;;;7.00;;
65289;SDS011;51893;59.754;10.110;2022-12-17T00:09:14;21.50;;;8.60;;
65289;SDS011;51893;59.754;10.110;2022-12-17T00:12:00;28.50;;;10.20;;
65289;SDS011;51893;59.754;10.110;2022-12-17T00:14:49;17.90;;;7.80;;
65289;SDS011;51893;59.754;10.110;2022-12-17T00:17:35;21.20;;;7.70;;
65289;SDS011;51893;59.754;10.110;2022-12-17T00:20:23;20.10;;;8.20;;
65289;SDS011;51893;59.754;10.110;2022-12-17T00:23:11;15.40;;;7.70;;
65289;SDS011;51893;59.754;10.110;2022-12-17T00:25:59;14.90;;;8.30;;
65289;SDS011;51893;59.754;10.110;2022-12-17T00:28:49;15.20;;;7.40;;
65289;SDS011;51893;59.754;10.110;2022-12-17T00:31:39;16.10;;;6.30;;
65289;SDS011;51893;59.754;10.110;2022-12-17T00:34:27;7.50;;;4.40;;
65289;SDS011;51893;59.754;10.110;2022-12-17T00:37:15;9.10;;;5.30;;
65289;SDS011;51893;59.754;10.110;2022-12-17T00:40:15;12.40;;;5.70;;
65289;SDS011;51893;59.754;10.110;2022-12-17T00:43:05;7.60;;;4.30;;
65289;SDS011;51893;59.754;10.110;2022-12-17T00:45:57;14.30;;;5.90;;
65289;SDS011;51893;59.754;10.110;2022-12-17T00:48:45;18.70;;;7.30;;
65289;SDS011;51893;59.754;10.110;2022-12-17T00:51:31;13.20;;;5.10;;
65289;SDS011;51893;59.754;10.110;2022-12-17T00:54:19;22.00;;;8.70;;
65289;SDS011;51893;59.754;10.110;2022-12-17T00:57:07;20.40;;;7.80;;
65289;SDS011;51893;59.754;10.110;2022-12-17T00:59:53;16.50;;;7.20;;
65289;SDS011;51893;59.754;10.110;2022-12-17T01:02:38;18.50;;;7.60;;
65289;SDS011;51893;59.754;10.110;2022-12-17T01:05:25;7.20;;;3.20;;
65289;SDS011;51893;59.754;10.110;2022-12-17T01:08:14;5.90;;;3.50;;
65289;SDS011;51893;59.754;10.110;2022-12-17T01:11:03;14.60;;;5.90;;
65289;SDS011;51893;59.754;10.110;2022-12-17T01:13:57;4.10;;;3.10;;
65289;SDS011;51893;59.754;10.110;2022-12-17T01:16:45;8.70;;;4.30;;
65289;SDS011;51893;59.754;10.110;2022-12-17T01:19:31;4.60;;;2.40;;
65289;SDS011;51893;59.754;10.110;2022-12-17T01:22:16;7.90;;;4.20;;
65289;SDS011;51893;59.754;10.110;2022-12-17T01:25:09;12.90;;;5.40;;
65289;SDS011;51893;59.754;10.110;2022-12-17T01:27:56;9.80;;;5.30;;
65289;SDS011;51893;59.754;10.110;2022-12-17T01:30:42;16.70;;;5.40;;
65289;SDS011;51893;59.754;10.110;2022-12-17T01:33:35;11.20;;;5.30;;
65289;SDS011;51893;59.754;10.110;2022-12-17T01:36:25;9.20;;;5.10;;
65289;SDS011;51893;59.754;10.110;2022-12-17T01:39:10;1.50;;;1.40;;
65289;SDS011;51893;59.754;10.110;2022-12-17T01:41:56;1.70;;;1.30;;
65289;SDS011;51893;59.754;10.110;2022-12-17T01:47:50;8.20;;;3.90;;
65289;SDS011;51893;59.754;10.110;2022-12-17T01:51:04;3.80;;;2.90;;
65289;SDS011;51893;59.754;10.110;2022-12-17T01:53:52;6.80;;;3.80;;
65289;SDS011;51893;59.754;10.110;2022-12-17T01:56:42;8.40;;;3.80;;
65289;SDS011;51893;59.754;10.110;2022-12-17T02:02:34;8.30;;;4.20;;
65289;SDS011;51893;59.754;10.110;2022-12-17T02:05:28;6.40;;;3.70;;
65289;SDS011;51893;59.754;10.110;2022-12-17T02:08:32;6.70;;;3.60;;
65289;SDS011;51893;59.754;10.110;2022-12-17T02:12:15;7.30;;;3.10;;
65289;SDS011;51893;59.754;10.110;2022-12-17T02:15:29;3.40;;;2.20;;
65289;SDS011;51893;59.754;10.110;2022-12-17T02:18:24;5.50;;;3.20;;
65289;SDS011;51893;59.754;10.110;2022-12-17T02:21:20;6.20;;;4.00;;
65289;SDS011;51893;59.754;10.110;2022-12-17T02:24:16;7.10;;;2.60;;
65289;SDS011;51893;59.754;10.110;2022-12-17T02:27:12;4.30;;;2.10;;
65289;SDS011;51893;59.754;10.110;2022-12-17T02:30:03;4.60;;;2.50;;
65289;SDS011;51893;59.754;10.110;2022-12-17T02:32:58;3.10;;;1.90;;
65289;SDS011;51893;59.754;10.110;2022-12-17T02:35:51;4.80;;;2.40;;
65289;SDS011;51893;59.754;10.110;2022-12-17T02:38:42;3.80;;;1.60;;
65289;SDS011;51893;59.754;10.110;2022-12-17T02:41:39;3.90;;;2.50;;
65289;SDS011;51893;59.754;10.110;2022-12-17T02:44:28;4.10;;;2.20;;
65289;SDS011;51893;59.754;10.110;2022-12-17T02:47:20;2.40;;;1.90;;
65289;SDS011;51893;59.754;10.110;2022-12-17T02:50:10;1.90;;;1.70;;
65289;SDS011;51893;59.754;10.110;2022-12-17T02:53:02;3.00;;;1.70;;
65289;SDS011;51893;59.754;10.110;2022-12-17T02:55:50;2.30;;;1.70;;
65289;SDS011;51893;59.754;10.110;2022-12-17T02:58:35;1.30;;;1.20;;
65289;SDS011;51893;59.754;10.110;2022-12-17T03:01:21;1.70;;;1.30;;
65289;SDS011;51893;59.754;10.110;2022-12-17T03:04:07;2.70;;;2.10;;
65289;SDS011;51893;59.754;10.110;2022-12-17T03:06:56;3.90;;;2.20;;
65289;SDS011;51893;59.754;10.110;2022-12-17T03:09:45;2.80;;;1.90;;
65289;SDS011;51893;59.754;10.110;2022-12-17T03:12:33;3.60;;;1.90;;
65289;SDS011;51893;59.754;10.110;2022-12-17T03:15:21;3.40;;;2.00;;
65289;SDS011;51893;59.754;10.110;2022-12-17T03:21:10;2.90;;;1.60;;
65289;SDS011;51893;59.754;10.110;2022-12-17T03:23:55;4.60;;;1.70;;
65289;SDS011;51893;59.754;10.110;2022-12-17T03:26:42;1.00;;;1.00;;
65289;SDS011;51893;59.754;10.110;2022-12-17T03:29:29;1.00;;;1.00;;
65289;SDS011;51893;59.754;10.110;2022-12-17T03:32:18;0.90;;;0.90;;
65289;SDS011;51893;59.754;10.110;2022-12-17T03:35:11;2.20;;;1.80;;
65289;SDS011;51893;59.754;10.110;2022-12-17T03:37:56;1.80;;;1.50;;
65289;SDS011;51893;59.754;10.110;2022-12-17T03:40:49;1.40;;;1.30;;
65289;SDS011;51893;59.754;10.110;2022-12-17T03:43:37;3.90;;;2.10;;
65289;SDS011;51893;59.754;10.110;2022-12-17T03:46:25;1.50;;;1.40;;
65289;SDS011;51893;59.754;10.110;2022-12-17T03:49:13;1.50;;;1.40;;
65289;SDS011;51893;59.754;10.110;2022-12-17T03:52:00;2.80;;;2.10;;
65289;SDS011;51893;59.754;10.110;2022-12-17T03:54:46;2.50;;;1.80;;
65289;SDS011;51893;59.754;10.110;2022-12-17T03:57:31;0.90;;;1.40;;
65289;SDS011;51893;59.754;10.110;2022-12-17T04:00:20;3.60;;;1.40;;
65289;SDS011;51893;59.754;10.110;2022-12-17T04:03:07;1.20;;;0.80;;
65289;SDS011;51893;59.754;10.110;2022-12-17T04:05:56;2.80;;;1.70;;
65289;SDS011;51893;59.754;10.110;2022-12-17T04:08:46;1.80;;;1.00;;
65289;SDS011;51893;59.754;10.110;2022-12-17T04:11:31;1.50;;;1.30;;
65289;SDS011;51893;59.754;10.110;2022-12-17T04:14:20;1.40;;;1.30;;
65289;SDS011;51893;59.754;10.110;2022-12-17T04:17:06;0.90;;;0.90;;
65289;SDS011;51893;59.754;10.110;2022-12-17T04:19:52;1.70;;;1.50;;
65289;SDS011;51893;59.754;10.110;2022-12-17T04:22:52;2.70;;;1.20;;
65289;SDS011;51893;59.754;10.110;2022-12-17T04:25:40;2.10;;;1.50;;
65289;SDS011;51893;59.754;10.110;2022-12-17T04:28:25;0.70;;;0.70;;
65289;SDS011;51893;59.754;10.110;2022-12-17T04:31:13;1.30;;;1.10;;
65289;SDS011;51893;59.754;10.110;2022-12-17T04:33:59;1.90;;;1.40;;
65289;SDS011;51893;59.754;10.110;2022-12-17T04:36:47;1.00;;;1.00;;
65289;SDS011;51893;59.754;10.110;2022-12-17T04:39:33;1.30;;;1.10;;
65289;SDS011;51893;59.754;10.110;2022-12-17T04:42:20;1.30;;;1.10;;
65289;SDS011;51893;59.754;10.110;2022-12-17T04:45:09;2.20;;;1.50;;
65289;SDS011;51893;59.754;10.110;2022-12-17T04:48:14;1.80;;;1.50;;
65289;SDS011;51893;59.754;10.110;2022-12-17T04:51:01;2.80;;;1.30;;
65289;SDS011;51893;59.754;10.110;2022-12-17T04:53:47;1.70;;;1.30;;
65289;SDS011;51893;59.754;10.110;2022-12-17T04:56:32;1.40;;;1.30;;
65289;SDS011;51893;59.754;10.110;2022-12-17T04:59:22;4.20;;;1.30;;
65289;SDS011;51893;59.754;10.110;2022-12-17T05:02:07;1.20;;;1.10;;
65289;SDS011;51893;59.754;10.110;2022-12-17T05:04:59;2.00;;;1.80;;
65289;SDS011;51893;59.754;10.110;2022-12-17T05:07:53;2.80;;;1.40;;
65289;SDS011;51893;59.754;10.110;2022-12-17T05:10:42;1.70;;;1.40;;
65289;SDS011;51893;59.754;10.110;2022-12-17T05:13:27;1.60;;;1.50;;
65289;SDS011;51893;59.754;10.110;2022-12-17T05:16:14;2.20;;;2.00;;
65289;SDS011;51893;59.754;10.110;2022-12-17T05:18:59;6.80;;;2.30;;
65289;SDS011;51893;59.754;10.110;2022-12-17T05:21:45;1.40;;;1.30;;
65289;SDS011;51893;59.754;10.110;2022-12-17T05:24:33;1.90;;;1.40;;
65289;SDS011;51893;59.754;10.110;2022-12-17T05:27:21;3.00;;;1.30;;
65289;SDS011;51893;59.754;10.110;2022-12-17T05:30:07;2.10;;;1.70;;
65289;SDS011;51893;59.754;10.110;2022-12-17T05:33:00;1.40;;;1.30;;
65289;SDS011;51893;59.754;10.110;2022-12-17T05:35:48;3.70;;;1.90;;
65289;SDS011;51893;59.754;10.110;2022-12-17T05:38:35;2.40;;;1.90;;
65289;SDS011;51893;59.754;10.110;2022-12-17T05:41:23;1.50;;;1.40;;
65289;SDS011;51893;59.754;10.110;2022-12-17T05:44:09;3.40;;;1.50;;
65289;SDS011;51893;59.754;10.110;2022-12-17T05:46:55;2.40;;;1.90;;
65289;SDS011;51893;59.754;10.110;2022-12-17T05:49:41;2.20;;;1.50;;
65289;SDS011;51893;59.754;10.110;2022-12-17T05:52:30;1.90;;;1.40;;
65289;SDS011;51893;59.754;10.110;2022-12-17T05:55:18;2.90;;;1.40;;
65289;SDS011;51893;59.754;10.110;2022-12-17T05:58:09;7.40;;;1.70;;
65289;SDS011;51893;59.754;10.110;2022-12-17T06:00:57;2.70;;;1.60;;
65289;SDS011;51893;59.754;10.110;2022-12-17T06:03:48;1.90;;;1.40;;
65289;SDS011;51893;59.754;10.110;2022-12-17T06:06:33;1.40;;;1.30;;
65289;SDS011;51893;59.754;10.110;2022-12-17T06:09:24;1.80;;;1.70;;
65289;SDS011;51893;59.754;10.110;2022-12-17T06:12:10;1.60;;;1.40;;
65289;SDS011;51893;59.754;10.110;2022-12-17T06:14:57;1.50;;;1.20;;
65289;SDS011;51893;59.754;10.110;2022-12-17T06:17:54;2.50;;;1.90;;
65289;SDS011;51893;59.754;10.110;2022-12-17T06:20:44;2.70;;;1.70;;
65289;SDS011;51893;59.754;10.110;2022-12-17T06:23:30;1.50;;;1.40;;
65289;SDS011;51893;59.754;10.110;2022-12-17T06:26:16;1.50;;;1.20;;
65289;SDS011;51893;59.754;10.110;2022-12-17T06:29:01;2.80;;;1.90;;
65289;SDS011;51893;59.754;10.110;2022-12-17T06:31:57;2.00;;;1.40;;
65289;SDS011;51893;59.754;10.110;2022-12-17T06:34:43;1.70;;;1.30;;
65289;SDS011;51893;59.754;10.110;2022-12-17T06:37:28;1.30;;;1.20;;
65289;SDS011;51893;59.754;10.110;2022-12-17T06:40:16;1.20;;;1.10;;
65289;SDS011;51893;59.754;10.110;2022-12-17T06:43:02;2.40;;;1.60;;
65289;SDS011;51893;59.754;10.110;2022-12-17T06:45:50;2.30;;;1.80;;
65289;SDS011;51893;59.754;10.110;2022-12-17T06:48:37;1.80;;;1.10;;
65289;SDS011;51893;59.754;10.110;2022-12-17T06:51:24;2.40;;;1.50;;
65289;SDS011;51893;59.754;10.110;2022-12-17T06:54:10;1.80;;;1.60;;
65289;SDS011;51893;59.754;10.110;2022-12-17T06:56:59;1.80;;;1.50;;
65289;SDS011;51893;59.754;10.110;2022-12-17T06:59:55;1.90;;;1.40;;
65289;SDS011;51893;59.754;10.110;2022-12-17T07:02:41;8.30;;;2.20;;
65289;SDS011;51893;59.754;10.110;2022-12-17T07:05:29;2.10;;;1.70;;
65289;SDS011;51893;59.754;10.110;2022-12-17T07:08:14;2.80;;;1.40;;
65289;SDS011;51893;59.754;10.110;2022-12-17T07:11:04;1.10;;;0.90;;
65289;SDS011;51893;59.754;10.110;2022-12-17T07:13:50;3.30;;;1.50;;
65289;SDS011;51893;59.754;10.110;2022-12-17T07:16:36;3.50;;;1.80;;
65289;SDS011;51893;59.754;10.110;2022-12-17T07:19:23;2.60;;;1.50;;
65289;SDS011;51893;59.754;10.110;2022-12-17T07:22:09;2.60;;;1.70;;
65289;SDS011;51893;59.754;10.110;2022-12-17T07:25:05;2.70;;;2.20;;
65289;SDS011;51893;59.754;10.110;2022-12-17T07:27:54;2.60;;;1.70;;
65289;SDS011;51893;59.754;10.110;2022-12-17T07:30:41;1.90;;;1.70;;
65289;SDS011;51893;59.754;10.110;2022-12-17T07:33:29;8.90;;;3.70;;
65289;SDS011;51893;59.754;10.110;2022-12-17T07:36:17;3.80;;;2.20;;
65289;SDS011;51893;59.754;10.110;2022-12-17T07:39:03;2.20;;;1.90;;
65289;SDS011;51893;59.754;10.110;2022-12-17T07:41:50;1.80;;;1.50;;
65289;SDS011;51893;59.754;10.110;2022-12-17T07:44:36;3.80;;;2.50;;
65289;SDS011;51893;59.754;10.110;2022-12-17T07:47:24;2.50;;;1.90;;
65289;SDS011;51893;59.754;10.110;2022-12-17T07:50:09;2.30;;;2.10;;
65289;SDS011;51893;59.754;10.110;2022-12-17T07:53:02;4.10;;;2.10;;
65289;SDS011;51893;59.754;10.110;2022-12-17T07:55:50;2.70;;;1.70;;
65289;SDS011;51893;59.754;10.110;2022-12-17T07:58:36;2.40;;;1.60;;
65289;SDS011;51893;59.754;10.110;2022-12-17T08:01:24;3.30;;;1.80;;
65289;SDS011;51893;59.754;10.110;2022-12-17T08:04:13;5.70;;;1.10;;
65289;SDS011;51893;59.754;10.110;2022-12-17T08:06:59;1.50;;;1.20;;
65289;SDS011;51893;59.754;10.110;2022-12-17T08:09:46;1.70;;;1.10;;
65289;SDS011;51893;59.754;10.110;2022-12-17T08:12:32;2.40;;;1.80;;
65289;SDS011;51893;59.754;10.110;2022-12-17T08:15:17;3.60;;;1.90;;
65289;SDS011;51893;59.754;10.110;2022-12-17T08:18:03;3.70;;;2.00;;
65289;SDS011;51893;59.754;10.110;2022-12-17T08:20:53;3.20;;;2.20;;
65289;SDS011;51893;59.754;10.110;2022-12-17T08:23:38;2.10;;;1.90;;
65289;SDS011;51893;59.754;10.110;2022-12-17T08:26:23;5.70;;;2.00;;
65289;SDS011;51893;59.754;10.110;2022-12-17T08:29:14;3.10;;;1.40;;
65289;SDS011;51893;59.754;10.110;2022-12-17T08:31:59;2.60;;;1.40;;
65289;SDS011;51893;59.754;10.110;2022-12-17T08:34:44;2.80;;;2.00;;
65289;SDS011;51893;59.754;10.110;2022-12-17T08:37:29;2.70;;;1.50;;
65289;SDS011;51893;59.754;10.110;2022-12-17T08:40:15;3.70;;;2.00;;
65289;SDS011;51893;59.754;10.110;2022-12-17T08:43:04;3.20;;;1.90;;
65289;SDS011;51893;59.754;10.110;2022-12-17T08:45:51;4.30;;;2.20;;
65289;SDS011;51893;59.754;10.110;2022-12-17T08:48:39;6.30;;;2.20;;
65289;SDS011;51893;59.754;10.110;2022-12-17T08:51:24;6.10;;;2.60;;
65289;SDS011;51893;59.754;10.110;2022-12-17T08:54:27;15.90;;;4.60;;
65289;SDS011;51893;59.754;10.110;2022-12-17T08:57:15;8.00;;;4.40;;
65289;SDS011;51893;59.754;10.110;2022-12-17T09:00:03;3.50;;;1.80;;
65289;SDS011;51893;59.754;10.110;2022-12-17T09:02:55;2.80;;;2.20;;
65289;SDS011;51893;59.754;10.110;2022-12-17T09:05:46;1.70;;;1.20;;
65289;SDS011;51893;59.754;10.110;2022-12-17T09:08:32;0.80;;;0.80;;
65289;SDS011;51893;59.754;10.110;2022-12-17T09:11:19;2.90;;;2.40;;
65289;SDS011;51893;59.754;10.110;2022-12-17T09:14:04;2.90;;;1.70;;
65289;SDS011;51893;59.754;10.110;2022-12-17T09:16:51;3.50;;;1.80;;
65289;SDS011;51893;59.754;10.110;2022-12-17T09:19:36;1.90;;;1.70;;
65289;SDS011;51893;59.754;10.110;2022-12-17T09:22:24;7.40;;;2.90;;
65289;SDS011;51893;59.754;10.110;2022-12-17T09:25:13;2.30;;;2.10;;
65289;SDS011;51893;59.754;10.110;2022-12-17T09:28:02;4.60;;;1.40;;
65289;SDS011;51893;59.754;10.110;2022-12-17T09:30:51;2.90;;;2.40;;
65289;SDS011;51893;59.754;10.110;2022-12-17T09:33:36;2.90;;;1.80;;
65289;SDS011;51893;59.754;10.110;2022-12-17T09:36:23;4.50;;;3.00;;
65289;SDS011;51893;59.754;10.110;2022-12-17T09:39:17;1.60;;;1.50;;
65289;SDS011;51893;59.754;10.110;2022-12-17T09:42:44;3.90;;;2.10;;
65289;SDS011;51893;59.754;10.110;2022-12-17T09:45:49;2.20;;;2.10;;
65289;SDS011;51893;59.754;10.110;2022-12-17T09:48:59;3.40;;;2.40;;
65289;SDS011;51893;59.754;10.110;2022-12-17T09:51:49;2.20;;;2.00;;
65289;SDS011;51893;59.754;10.110;2022-12-17T09:54:41;4.00;;;3.10;;
65289;SDS011;51893;59.754;10.110;2022-12-17T09:57:36;2.10;;;1.90;;
65289;SDS011;51893;59.754;10.110;2022-12-17T10:00:27;3.70;;;2.20;;
65289;SDS011;51893;59.754;10.110;2022-12-17T10:03:19;2.70;;;1.60;;
65289;SDS011;51893;59.754;10.110;2022-12-17T10:06:28;4.50;;;3.00;;
65289;SDS011;51893;59.754;10.110;2022-12-17T10:09:30;7.00;;;4.40;;
65289;SDS011;51893;59.754;10.110;2022-12-17T10:12:19;5.80;;;3.20;;
65289;SDS011;51893;59.754;10.110;2022-12-17T10:15:12;5.30;;;2.70;;
65289;SDS011;51893;59.754;10.110;2022-12-17T10:18:08;7.10;;;3.90;;
65289;SDS011;51893;59.754;10.110;2022-12-17T10:20:58;6.50;;;3.50;;
65289;SDS011;51893;59.754;10.110;2022-12-17T10:23:46;9.70;;;3.90;;
65289;SDS011;51893;59.754;10.110;2022-12-17T10:26:36;8.40;;;4.00;;
65289;SDS011;51893;59.754;10.110;2022-12-17T10:29:25;6.70;;;3.10;;
65289;SDS011;51893;59.754;10.110;2022-12-17T10:32:21;3.70;;;2.20;;
65289;SDS011;51893;59.754;10.110;2022-12-17T10:35:20;5.20;;;2.50;;
65289;SDS011;51893;59.754;10.110;2022-12-17T10:38:25;3.10;;;2.40;;
65289;SDS011;51893;59.754;10.110;2022-12-17T10:41:29;5.00;;;2.90;;
65289;SDS011;51893;59.754;10.110;2022-12-17T10:44:29;5.90;;;3.50;;
65289;SDS011;51893;59.754;10.110;2022-12-17T10:47:20;3.40;;;1.50;;
65289;SDS011;51893;59.754;10.110;2022-12-17T10:50:15;10.00;;;3.80;;
65289;SDS011;51893;59.754;10.110;2022-12-17T10:53:05;6.30;;;3.10;;
65289;SDS011;51893;59.754;10.110;2022-12-17T10:56:06;5.70;;;3.10;;
65289;SDS011;51893;59.754;10.110;2022-12-17T10:59:34;6.50;;;2.90;;
65289;SDS011;51893;59.754;10.110;2022-12-17T11:02:28;5.40;;;3.30;;
65289;SDS011;51893;59.754;10.110;2022-12-17T11:05:27;4.50;;;3.10;;
65289;SDS011;51893;59.754;10.110;2022-12-17T11:08:26;4.20;;;3.00;;
65289;SDS011;51893;59.754;10.110;2022-12-17T11:11:15;2.80;;;1.80;;
65289;SDS011;51893;59.754;10.110;2022-12-17T11:14:02;3.00;;;1.80;;
65289;SDS011;51893;59.754;10.110;2022-12-17T11:16:54;5.20;;;3.00;;
65289;SDS011;51893;59.754;10.110;2022-12-17T11:19:51;2.70;;;2.10;;
65289;SDS011;51893;59.754;10.110;2022-12-17T11:22:46;4.00;;;2.00;;
65289;SDS011;51893;59.754;10.110;2022-12-17T11:25:59;1.50;;;1.40;;
65289;SDS011;51893;59.754;10.110;2022-12-17T11:29:01;3.10;;;2.00;;
65289;SDS011;51893;59.754;10.110;2022-12-17T11:32:00;3.70;;;2.20;;
65289;SDS011;51893;59.754;10.110;2022-12-17T11:48:34;2.10;;;1.40;;
65289;SDS011;51893;59.754;10.110;2022-12-17T11:55:12;4.40;;;2.40;;
65289;SDS011;51893;59.754;10.110;2022-12-17T11:58:49;6.60;;;2.80;;
65289;SDS011;51893;59.754;10.110;2022-12-17T12:05:07;3.60;;;2.10;;
65289;SDS011;51893;59.754;10.110;2022-12-17T12:08:20;2.10;;;1.80;;
65289;SDS011;51893;59.754;10.110;2022-12-17T12:17:51;6.30;;;3.20;;
65289;SDS011;51893;59.754;10.110;2022-12-17T12:30:55;1.90;;;1.60;;
65289;SDS011;51893;59.754;10.110;2022-12-17T12:34:05;3.40;;;2.60;;
65289;SDS011;51893;59.754;10.110;2022-12-17T12:36:59;5.60;;;2.80;;
65289;SDS011;51893;59.754;10.110;2022-12-17T12:39:58;7.70;;;3.60;;
65289;SDS011;51893;59.754;10.110;2022-12-17T12:43:03;8.00;;;3.10;;
65289;SDS011;51893;59.754;10.110;2022-12-17T12:49:19;2.10;;;1.20;;
65289;SDS011;51893;59.754;10.110;2022-12-17T12:52:20;9.60;;;4.00;;
65289;SDS011;51893;59.754;10.110;2022-12-17T12:55:11;9.20;;;4.00;;
65289;SDS011;51893;59.754;10.110;2022-12-17T12:58:27;9.70;;;3.30;;
65289;SDS011;51893;59.754;10.110;2022-12-17T13:01:16;6.40;;;2.20;;
65289;SDS011;51893;59.754;10.110;2022-12-17T13:04:27;3.70;;;2.60;;
65289;SDS011;51893;59.754;10.110;2022-12-17T13:07:27;13.20;;;4.80;;
65289;SDS011;51893;59.754;10.110;2022-12-17T13:09:57;13.30;;;4.70;;
65289;SDS011;51893;59.754;10.110;2022-12-17T13:12:32;17.10;;;4.70;;
65289;SDS011;51893;59.754;10.110;2022-12-17T13:15:36;13.00;;;4.20;;
65289;SDS011;51893;59.754;10.110;2022-12-17T13:18:34;7.30;;;3.10;;
65289;SDS011;51893;59.754;10.110;2022-12-17T13:21:26;8.40;;;3.90;;
65289;SDS011;51893;59.754;10.110;2022-12-17T13:23:56;14.70;;;5.80;;
65289;SDS011;51893;59.754;10.110;2022-12-17T13:26:46;37.70;;;13.30;;
65289;SDS011;51893;59.754;10.110;2022-12-17T13:29:28;7.20;;;3.50;;
65289;SDS011;51893;59.754;10.110;2022-12-17T13:32:02;7.70;;;3.50;;
65289;SDS011;51893;59.754;10.110;2022-12-17T13:37:54;6.80;;;3.10;;
65289;SDS011;51893;59.754;10.110;2022-12-17T13:41:06;4.60;;;2.80;;
65289;SDS011;51893;59.754;10.110;2022-12-17T13:43:49;4.70;;;3.20;;
65289;SDS011;51893;59.754;10.110;2022-12-17T13:46:43;6.80;;;3.40;;
65289;SDS011;51893;59.754;10.110;2022-12-17T13:49:27;4.80;;;2.80;;
65289;SDS011;51893;59.754;10.110;2022-12-17T13:52:05;2.70;;;2.20;;
65289;SDS011;51893;59.754;10.110;2022-12-17T13:54:42;7.10;;;4.00;;
65289;SDS011;51893;59.754;10.110;2022-12-17T13:57:22;4.60;;;2.70;;
65289;SDS011;51893;59.754;10.110;2022-12-17T13:59:53;4.00;;;2.30;;
65289;SDS011;51893;59.754;10.110;2022-12-17T14:02:32;5.70;;;2.30;;
65289;SDS011;51893;59.754;10.110;2022-12-17T14:05:06;2.00;;;1.90;;
65289;SDS011;51893;59.754;10.110;2022-12-17T14:07:53;4.00;;;3.20;;
65289;SDS011;51893;59.754;10.110;2022-12-17T14:10:25;4.80;;;2.90;;
65289;SDS011;51893;59.754;10.110;2022-12-17T14:13:03;8.00;;;3.90;;
65289;SDS011;51893;59.754;10.110;2022-12-17T14:15:33;7.10;;;3.00;;
65289;SDS011;51893;59.754;10.110;2022-12-17T14:18:01;6.00;;;2.80;;
65289;SDS011;51893;59.754;10.110;2022-12-17T14:20:31;5.80;;;3.30;;
65289;SDS011;51893;59.754;10.110;2022-12-17T14:23:22;2.40;;;1.70;;
65289;SDS011;51893;59.754;10.110;2022-12-17T14:25:55;1.80;;;1.70;;
65289;SDS011;51893;59.754;10.110;2022-12-17T14:28:34;3.50;;;1.90;;
65289;SDS011;51893;59.754;10.110;2022-12-17T14:31:26;8.60;;;3.90;;
65289;SDS011;51893;59.754;10.110;2022-12-17T14:34:03;6.50;;;3.20;;
65289;SDS011;51893;59.754;10.110;2022-12-17T14:36:40;4.20;;;2.10;;
65289;SDS011;51893;59.754;10.110;2022-12-17T14:42:12;3.50;;;2.70;;
65289;SDS011;51893;59.754;10.110;2022-12-17T14:50:36;4.40;;;2.50;;
65289;SDS011;51893;59.754;10.110;2022-12-17T14:53:25;10.10;;;5.50;;
65289;SDS011;51893;59.754;10.110;2022-12-17T14:55:57;12.90;;;6.00;;
65289;SDS011;51893;59.754;10.110;2022-12-17T14:58:26;8.50;;;5.10;;
65289;SDS011;51893;59.754;10.110;2022-12-17T15:01:07;11.00;;;5.00;;
65289;SDS011;51893;59.754;10.110;2022-12-17T15:03:41;12.00;;;4.60;;
65289;SDS011;51893;59.754;10.110;2022-12-17T15:06:19;10.10;;;5.20;;
65289;SDS011;51893;59.754;10.110;2022-12-17T15:08:49;10.40;;;5.40;;
65289;SDS011;51893;59.754;10.110;2022-12-17T15:11:25;9.70;;;5.90;;
65289;SDS011;51893;59.754;10.110;2022-12-17T15:13:54;7.80;;;2.80;;
65289;SDS011;51893;59.754;10.110;2022-12-17T15:16:23;12.50;;;4.50;;
65289;SDS011;51893;59.754;10.110;2022-12-17T15:18:50;8.70;;;4.50;;
65289;SDS011;51893;59.754;10.110;2022-12-17T15:21:18;13.20;;;4.60;;
65289;SDS011;51893;59.754;10.110;2022-12-17T15:24:00;6.50;;;3.40;;
65289;SDS011;51893;59.754;10.110;2022-12-17T15:26:30;11.20;;;5.70;;
65289;SDS011;51893;59.754;10.110;2022-12-17T15:29:00;9.40;;;4.90;;
65289;SDS011;51893;59.754;10.110;2022-12-17T15:31:27;17.60;;;7.70;;
65289;SDS011;51893;59.754;10.110;2022-12-17T15:34:02;15.50;;;5.60;;
65289;SDS011;51893;59.754;10.110;2022-12-17T15:36:31;7.10;;;3.20;;
65289;SDS011;51893;59.754;10.110;2022-12-17T15:39:02;13.80;;;4.80;;
65289;SDS011;51893;59.754;10.110;2022-12-17T15:41:36;14.20;;;4.20;;
65289;SDS011;51893;59.754;10.110;2022-12-17T15:44:24;13.50;;;4.90;;
65289;SDS011;51893;59.754;10.110;2022-12-17T15:46:51;23.70;;;6.30;;
65289;SDS011;51893;59.754;10.110;2022-12-17T15:49:22;19.10;;;4.60;;
65289;SDS011;51893;59.754;10.110;2022-12-17T15:51:50;25.80;;;6.70;;
65289;SDS011;51893;59.754;10.110;2022-12-17T15:54:21;20.00;;;5.90;;
65289;SDS011;51893;59.754;10.110;2022-12-17T15:56:52;21.20;;;5.20;;
65289;SDS011;51893;59.754;10.110;2022-12-17T15:59:24;19.40;;;4.70;;
65289;SDS011;51893;59.754;10.110;2022-12-17T16:01:52;14.70;;;6.60;;
65289;SDS011;51893;59.754;10.110;2022-12-17T16:04:23;7.10;;;4.20;;
65289;SDS011;51893;59.754;10.110;2022-12-17T16:06:56;10.60;;;4.10;;
65289;SDS011;51893;59.754;10.110;2022-12-17T16:09:28;27.70;;;7.50;;
65289;SDS011;51893;59.754;10.110;2022-12-17T16:11:57;33.70;;;9.20;;
65289;SDS011;51893;59.754;10.110;2022-12-17T16:14:31;20.00;;;5.80;;
65289;SDS011;51893;59.754;10.110;2022-12-17T16:16:59;18.10;;;7.40;;
65289;SDS011;51893;59.754;10.110;2022-12-17T16:19:31;12.80;;;4.60;;
65289;SDS011;51893;59.754;10.110;2022-12-17T16:22:01;4.60;;;3.10;;
65289;SDS011;51893;59.754;10.110;2022-12-17T16:24:34;9.90;;;5.60;;
65289;SDS011;51893;59.754;10.110;2022-12-17T16:27:05;6.50;;;3.90;;
65289;SDS011;51893;59.754;10.110;2022-12-17T16:29:32;7.90;;;4.70;;
65289;SDS011;51893;59.754;10.110;2022-12-17T16:32:00;9.00;;;4.40;;
65289;SDS011;51893;59.754;10.110;2022-12-17T16:34:27;9.60;;;4.50;;
65289;SDS011;51893;59.754;10.110;2022-12-17T16:36:57;6.40;;;3.20;;
65289;SDS011;51893;59.754;10.110;2022-12-17T16:39:26;4.00;;;1.90;;
65289;SDS011;51893;59.754;10.110;2022-12-17T16:41:55;10.00;;;4.20;;
65289;SDS011;51893;59.754;10.110;2022-12-17T16:44:22;3.70;;;2.70;;
65289;SDS011;51893;59.754;10.110;2022-12-17T16:46:50;7.60;;;3.50;;
65289;SDS011;51893;59.754;10.110;2022-12-17T16:49:24;3.90;;;2.60;;
65289;SDS011;51893;59.754;10.110;2022-12-17T16:51:58;3.70;;;2.50;;
65289;SDS011;51893;59.754;10.110;2022-12-17T16:54:29;7.00;;;3.30;;
65289;SDS011;51893;59.754;10.110;2022-12-17T16:56:58;2.90;;;2.40;;
65289;SDS011;51893;59.754;10.110;2022-12-17T16:59:25;5.50;;;3.50;;
65289;SDS011;51893;59.754;10.110;2022-12-17T17:01:52;7.00;;;4.00;;
65289;SDS011;51893;59.754;10.110;2022-12-17T17:04:24;4.60;;;2.60;;
65289;SDS011;51893;59.754;10.110;2022-12-17T17:06:54;8.20;;;4.20;;
65289;SDS011;51893;59.754;10.110;2022-12-17T17:09:24;5.70;;;3.70;;
65289;SDS011;51893;59.754;10.110;2022-12-17T17:11:55;9.50;;;4.70;;
65289;SDS011;51893;59.754;10.110;2022-12-17T17:14:25;9.60;;;5.30;;
65289;SDS011;51893;59.754;10.110;2022-12-17T17:16:52;10.30;;;5.50;;
65289;SDS011;51893;59.754;10.110;2022-12-17T17:19:19;17.60;;;7.50;;
65289;SDS011;51893;59.754;10.110;2022-12-17T17:21:53;15.80;;;6.90;;
65289;SDS011;51893;59.754;10.110;2022-12-17T17:24:22;19.30;;;6.30;;
65289;SDS011;51893;59.754;10.110;2022-12-17T17:26:52;13.20;;;4.70;;